createdAt,value
2022-12-20T00:01:57.784Z,101246.72
2022-12-20T00:04:26.428Z,101245.88
2022-12-20T00:06:56.213Z,101245.03
2022-12-20T00:09:25.457Z,101225.22
2022-12-20T00:11:54.075Z,101233.88
2022-12-20T00:14:22.818Z,101235.63
2022-12-20T00:16:51.191Z,101225.28
2022-12-20T00:19:19.740Z,101223.63
2022-12-20T00:21:48.301Z,101219.28
2022-12-20T00:24:23.889Z,101221.88
2022-12-20T00:26:54.649Z,101215.00
2022-12-20T00:29:23.192Z,101205.56
2022-12-20T00:31:52.287Z,101205.56
2022-12-20T00:34:21.021Z,101205.56
2022-12-20T00:36:49.612Z,101209.84
2022-12-20T00:39:19.675Z,101211.53
2022-12-20T00:41:48.275Z,101214.16
2022-12-20T00:44:18.815Z,101204.66
2022-12-20T00:46:47.888Z,101209.84
2022-12-20T00:49:16.716Z,101209.03
2022-12-20T00:51:45.422Z,101208.19
2022-12-20T00:54:15.576Z,101219.31
2022-12-20T00:56:48.579Z,101220.19
2022-12-20T00:59:17.351Z,101221.03
2022-12-20T01:01:50.226Z,101208.91
2022-12-20T01:04:22.001Z,101209.78
2022-12-20T01:06:50.958Z,101214.94
2022-12-20T01:09:20.289Z,101212.44
2022-12-20T01:11:53.548Z,101206.44
2022-12-20T01:14:27.614Z,101215.94
2022-12-20T01:16:56.621Z,101214.22
2022-12-20T01:19:26.652Z,101204.75
2022-12-20T01:21:55.465Z,101212.53
2022-12-20T01:24:24.109Z,101214.25
2022-12-20T01:26:56.243Z,101209.09
2022-12-20T01:29:24.992Z,101209.97
2022-12-20T01:31:54.844Z,101200.56
2022-12-20T01:34:23.593Z,101206.63
2022-12-20T01:36:52.283Z,101198.91
2022-12-20T01:39:20.967Z,101198.09
2022-12-20T01:41:49.663Z,101190.41
2022-12-20T01:44:58.724Z,101188.66
2022-12-20T01:47:30.530Z,101179.25
2022-12-20T01:50:02.701Z,101169.78
2022-12-20T01:52:36.402Z,101172.38
2022-12-20T01:55:11.649Z,101163.81
2022-12-20T01:57:47.211Z,101168.06
2022-12-20T02:00:17.890Z,101165.53
2022-12-20T02:02:50.632Z,101174.19
2022-12-20T02:05:22.474Z,101174.19
2022-12-20T02:07:53.767Z,101167.25
2022-12-20T02:10:28.142Z,101156.94
2022-12-20T02:13:05.557Z,101151.69
2022-12-20T02:15:47.758Z,101149.91
2022-12-20T02:18:23.581Z,101149.84
2022-12-20T02:21:13.753Z,101137.59
2022-12-20T02:24:42.614Z,101144.44
2022-12-20T02:27:47.275Z,101139.19
2022-12-20T02:30:21.766Z,101131.44
2022-12-20T02:32:59.119Z,101128.03
2022-12-20T02:35:31.110Z,101124.59
2022-12-20T02:38:02.018Z,101121.16
2022-12-20T02:40:35.842Z,101119.44
2022-12-20T02:43:28.645Z,101119.44
2022-12-20T02:46:00.424Z,101115.13
2022-12-20T02:48:33.122Z,101110.84
2022-12-20T02:51:04.251Z,101109.97
2022-12-20T02:53:33.398Z,101110.81
2022-12-20T02:56:14.516Z,101116.00
2022-12-20T02:58:50.312Z,101109.97
2022-12-20T03:01:27.702Z,101103.94
2022-12-20T03:03:58.793Z,101103.94
2022-12-20T03:06:27.532Z,101103.13
2022-12-20T03:08:56.156Z,101101.44
2022-12-20T03:11:28.064Z,101090.22
2022-12-20T03:13:57.174Z,101096.25
2022-12-20T03:16:26.975Z,101088.50
2022-12-20T03:18:55.365Z,101094.59
2022-12-20T03:21:24.186Z,101083.44
2022-12-20T03:23:52.701Z,101086.06
2022-12-20T03:26:20.897Z,101077.47
2022-12-20T03:28:54.811Z,101081.03
2022-12-20T03:31:28.328Z,101079.38
2022-12-20T03:33:57.505Z,101072.59
2022-12-20T03:36:26.271Z,101077.00
2022-12-20T03:38:59.475Z,101071.94
2022-12-20T03:41:29.837Z,101065.94
2022-12-20T03:43:58.805Z,101079.84
2022-12-20T03:46:28.993Z,101077.31
2022-12-20T03:48:58.174Z,101074.84
2022-12-20T03:51:27.790Z,101071.44
2022-12-20T03:53:56.657Z,101061.16
2022-12-20T03:56:34.084Z,101070.72
2022-12-20T03:59:04.320Z,101077.69
2022-12-20T04:01:36.620Z,101061.31
2022-12-20T04:04:06.462Z,101069.13
2022-12-20T04:06:36.822Z,101072.59
2022-12-20T04:09:05.477Z,101079.50
2022-12-20T04:11:40.763Z,101081.28
2022-12-20T04:14:16.052Z,101074.44
2022-12-20T04:16:46.867Z,101070.16
2022-12-20T04:19:15.877Z,101076.25
2022-12-20T04:21:48.441Z,101071.94
2022-12-20T04:24:18.981Z,101072.00
2022-12-20T04:26:54.902Z,101064.28
2022-12-20T04:29:23.745Z,101061.69
2022-12-20T04:31:54.654Z,101056.56
2022-12-20T04:34:24.481Z,101060.00
2022-12-20T04:36:53.329Z,101053.97
2022-12-20T04:39:32.598Z,101057.38
2022-12-20T04:42:17.050Z,101043.56
2022-12-20T04:44:45.726Z,101040.97
2022-12-20T04:47:17.587Z,101036.72
2022-12-20T04:49:46.208Z,101033.31
2022-12-20T04:52:32.082Z,101041.06
2022-12-20T04:55:00.743Z,101030.72
2022-12-20T04:57:32.801Z,101040.25
2022-12-20T05:00:02.736Z,101042.84
2022-12-20T05:02:32.432Z,101037.66
2022-12-20T05:05:07.372Z,101038.53
2022-12-20T05:07:42.193Z,101037.72
2022-12-20T05:10:12.377Z,101026.50
2022-12-20T05:12:42.003Z,101030.81
2022-12-20T05:15:15.886Z,101035.16
2022-12-20T05:17:46.430Z,101036.03
2022-12-20T05:20:15.709Z,101040.41
2022-12-20T05:23:04.002Z,101035.22
2022-12-20T05:26:05.463Z,101023.13
2022-12-20T05:28:35.025Z,101031.78
2022-12-20T05:31:04.484Z,101030.94
2022-12-20T05:33:36.708Z,101027.53
2022-12-20T05:36:06.895Z,101020.63
2022-12-20T05:38:36.342Z,101020.63
2022-12-20T05:41:08.503Z,101018.94
2022-12-20T05:43:37.630Z,101020.66
2022-12-20T05:46:06.797Z,101025.84
2022-12-20T05:48:46.139Z,101021.56
2022-12-20T05:51:15.715Z,101017.25
2022-12-20T05:54:03.515Z,101007.72
2022-12-20T05:56:50.619Z,101008.59
2022-12-20T05:59:24.142Z,101010.31
2022-12-20T06:01:53.243Z,101012.91
2022-12-20T06:04:23.711Z,101006.03
2022-12-20T06:06:53.430Z,101007.75
2022-12-20T06:09:22.182Z,101005.22
2022-12-20T06:11:58.187Z,101002.66
2022-12-20T06:14:28.235Z,100996.63
2022-12-20T06:16:58.314Z,101004.44
2022-12-20T06:19:27.987Z,100993.25
2022-12-20T06:21:59.194Z,100991.50
2022-12-20T06:24:35.531Z,100981.16
2022-12-20T06:27:06.979Z,100987.22
2022-12-20T06:29:37.346Z,100976.00
2022-12-20T06:32:10.788Z,100970.84
2022-12-20T06:34:41.434Z,100969.13
2022-12-20T06:37:10.193Z,100974.34
2022-12-20T06:39:39.629Z,100971.78
2022-12-20T06:42:10.185Z,100973.50
2022-12-20T06:44:41.019Z,100978.72
2022-12-20T06:47:09.603Z,100979.56
2022-12-20T06:49:38.142Z,100989.06
2022-12-20T06:52:14.403Z,100985.63
2022-12-20T06:54:49.681Z,100985.66
2022-12-20T06:57:18.279Z,100988.25
2022-12-20T06:59:49.252Z,100999.50
2022-12-20T07:02:17.703Z,101003.84
2022-12-20T07:04:46.396Z,101008.19
2022-12-20T07:07:17.187Z,101008.19
2022-12-20T07:09:45.758Z,101003.00
2022-12-20T07:12:14.828Z,100995.28
2022-12-20T07:14:43.447Z,100991.84
2022-12-20T07:17:12.331Z,100983.28
2022-12-20T07:19:45.593Z,100972.94
2022-12-20T07:22:18.613Z,100971.22
2022-12-20T07:24:47.628Z,100972.97
2022-12-20T07:27:16.446Z,100978.19
2022-12-20T07:29:45.047Z,100983.38
2022-12-20T07:32:14.405Z,100979.94
2022-12-20T07:34:42.742Z,100979.94
2022-12-20T07:37:12.107Z,100980.78
2022-12-20T07:39:42.297Z,100974.72
2022-12-20T07:42:11.564Z,100980.72
2022-12-20T07:44:44.011Z,100981.56
2022-12-20T07:47:12.684Z,100991.88
2022-12-20T07:49:41.792Z,100985.81
2022-12-20T07:52:13.646Z,100987.50
2022-12-20T07:54:48.622Z,100991.78
2022-12-20T07:57:22.956Z,100990.06
2022-12-20T07:59:55.717Z,100974.47
2022-12-20T08:02:30.034Z,100958.88
2022-12-20T08:04:59.059Z,100952.84
2022-12-20T08:07:29.957Z,100939.00
2022-12-20T08:10:00.011Z,100945.06
2022-12-20T08:12:31.286Z,100941.59
2022-12-20T08:14:59.945Z,100943.34
2022-12-20T08:17:28.848Z,100939.00
2022-12-20T08:19:57.783Z,100947.66
2022-12-20T08:22:26.306Z,100943.34
2022-12-20T08:24:54.519Z,100956.34
2022-12-20T08:27:24.661Z,100945.97
2022-12-20T08:29:53.174Z,100945.16
2022-12-20T08:32:21.835Z,100941.69
2022-12-20T08:34:51.329Z,100936.50
2022-12-20T08:37:20.270Z,100936.53
2022-12-20T08:39:48.789Z,100934.88
2022-12-20T08:42:17.325Z,100932.31
2022-12-20T08:44:46.879Z,100932.34
2022-12-20T08:47:15.402Z,100934.97
2022-12-20T08:49:47.658Z,100931.56
2022-12-20T08:52:16.750Z,100922.06
2022-12-20T08:54:45.315Z,100922.13
2022-12-20T08:57:13.856Z,100909.19
2022-12-20T08:59:42.438Z,100906.66
2022-12-20T09:02:12.237Z,100907.56
2022-12-20T09:04:40.861Z,100909.28
2022-12-20T09:07:09.389Z,100899.81
2022-12-20T09:09:37.754Z,100917.97
2022-12-20T09:12:07.724Z,100913.72
2022-12-20T09:14:36.313Z,100899.94
2022-12-20T09:17:04.863Z,100900.81
2022-12-20T09:19:34.470Z,100907.78
2022-12-20T09:22:03.066Z,100918.19
2022-12-20T09:24:33.175Z,100925.16
2022-12-20T09:27:01.444Z,100921.72
2022-12-20T09:29:35.523Z,100923.50
2022-12-20T09:32:04.714Z,100919.19
2022-12-20T09:34:34.546Z,100914.06
2022-12-20T09:37:03.143Z,100905.44
2022-12-20T09:39:31.400Z,100904.63
2022-12-20T09:42:00.474Z,100901.19
2022-12-20T09:44:32.803Z,100908.13
2022-12-20T09:47:10.726Z,100909.88
2022-12-20T09:49:45.128Z,100900.38
2022-12-20T09:52:48.935Z,100896.97
2022-12-20T09:55:27.854Z,100894.38
2022-12-20T09:58:13.525Z,100890.06
2022-12-20T10:00:53.294Z,100886.59
2022-12-20T10:03:27.778Z,100884.88
2022-12-20T10:06:03.179Z,100895.28
2022-12-20T10:08:46.740Z,100877.13
2022-12-20T10:11:42.036Z,100878.84
2022-12-20T10:14:34.374Z,100877.13
2022-12-20T10:17:09.318Z,100875.41
2022-12-20T10:20:04.205Z,100878.88
2022-12-20T10:22:43.056Z,100877.16
2022-12-20T10:25:21.344Z,100873.72
2022-12-20T10:27:53.859Z,100882.38
2022-12-20T10:30:26.216Z,100885.00
2022-12-20T10:32:59.346Z,100882.38
2022-12-20T10:35:31.218Z,100878.06
2022-12-20T10:38:08.438Z,100865.09
2022-12-20T10:41:18.767Z,100862.50
2022-12-20T10:43:38.467Z,100856.44
2022-12-20T10:46:09.645Z,100856.41
2022-12-20T10:48:41.026Z,100863.34
2022-12-20T10:51:17.874Z,100852.97
2022-12-20T10:54:01.122Z,100852.97
2022-12-20T10:56:31.514Z,100833.03
2022-12-20T10:59:02.475Z,100822.66
2022-12-20T11:01:35.469Z,100814.88
2022-12-20T11:04:06.700Z,100816.63
2022-12-20T11:06:47.053Z,100824.41
2022-12-20T11:09:30.599Z,100824.41
2022-12-20T11:12:06.460Z,100822.72
2022-12-20T11:14:39.767Z,100820.97
2022-12-20T11:17:29.097Z,100820.09
2022-12-20T11:20:13.592Z,100825.28
2022-12-20T11:22:57.273Z,100816.66
2022-12-20T11:25:46.335Z,100811.44
2022-12-20T11:28:45.017Z,100796.72
2022-12-20T11:31:24.243Z,100794.97
2022-12-20T11:34:10.436Z,100788.94
2022-12-20T11:36:59.794Z,100783.72
2022-12-20T11:39:35.774Z,100781.13
2022-12-20T11:42:16.797Z,100787.19
2022-12-20T11:45:06.702Z,100788.06
2022-12-20T11:48:11.311Z,100782.84
2022-12-20T11:50:57.938Z,100775.91
2022-12-20T11:53:33.628Z,100773.28
2022-12-20T11:56:09.992Z,100770.69
2022-12-20T11:58:52.842Z,100755.06
2022-12-20T12:01:27.191Z,100747.28
2022-12-20T12:04:08.119Z,100738.59
2022-12-20T12:06:41.505Z,100735.16
2022-12-20T12:09:22.129Z,100732.53
2022-12-20T12:12:06.624Z,100741.22
2022-12-20T12:14:51.972Z,100725.63
2022-12-20T12:17:28.619Z,100729.09
2022-12-20T12:20:23.313Z,100726.47
2022-12-20T12:22:56.698Z,100731.69
2022-12-20T12:25:25.554Z,100723.88
2022-12-20T12:27:54.072Z,100723.00
2022-12-20T12:30:24.195Z,100731.63
2022-12-20T12:33:00.159Z,100726.41
2022-12-20T12:36:10.727Z,100719.44
2022-12-20T12:39:24.790Z,100720.28
2022-12-20T12:42:31.806Z,100702.88
2022-12-20T12:45:03.862Z,100695.06
2022-12-20T12:47:40.137Z,100688.09
2022-12-20T12:50:21.724Z,100681.94
2022-12-20T12:52:55.239Z,100686.25
2022-12-20T12:55:42.822Z,100684.47
2022-12-20T12:58:35.878Z,100683.53
2022-12-20T13:01:09.534Z,100665.25
2022-12-20T13:04:08.438Z,100663.50
2022-12-20T13:07:05.738Z,100646.00
2022-12-20T13:09:43.465Z,100644.13
2022-12-20T13:12:58.854Z,100642.25
2022-12-20T13:16:12.144Z,100658.63
2022-12-20T13:18:55.861Z,100660.22
2022-12-20T13:21:39.083Z,100652.28
2022-12-20T13:24:56.905Z,100649.56
2022-12-20T13:27:35.507Z,100643.41
2022-12-20T13:30:29.219Z,100646.88
2022-12-20T13:33:23.948Z,100657.28
2022-12-20T13:36:06.502Z,100662.50
2022-12-20T13:38:56.734Z,100664.22
2022-12-20T13:41:51.892Z,100649.41
2022-12-20T13:44:42.400Z,100634.59
2022-12-20T13:47:40.113Z,100652.09
2022-12-20T13:50:35.495Z,100652.16
2022-12-20T13:53:04.916Z,100647.91
2022-12-20T13:55:39.172Z,100650.59
2022-12-20T13:58:19.789Z,100648.94
2022-12-20T14:00:49.221Z,100645.50
2022-12-20T14:03:25.154Z,100644.69
2022-12-20T14:05:59.582Z,100639.53
2022-12-20T14:08:31.653Z,100644.78
2022-12-20T14:11:12.147Z,100643.94
2022-12-20T14:13:41.730Z,100647.44
2022-12-20T14:16:16.086Z,100652.69
2022-12-20T14:18:51.260Z,100649.22
2022-12-20T14:21:20.341Z,100643.19
2022-12-20T14:23:51.679Z,100645.81
2022-12-20T14:26:26.696Z,100633.59
2022-12-20T14:28:58.063Z,100630.06
2022-12-20T14:31:30.146Z,100615.09
2022-12-20T14:34:08.183Z,100620.13
2022-12-20T14:36:37.293Z,100620.03
2022-12-20T14:39:26.091Z,100617.38
2022-12-20T14:41:59.853Z,100619.91
2022-12-20T14:44:30.981Z,100615.56
2022-12-20T14:47:02.042Z,100621.59
2022-12-20T14:49:32.717Z,100611.97
2022-12-20T14:52:15.549Z,100604.06
2022-12-20T14:57:46.255Z,100595.22
2022-12-20T15:00:22.923Z,100599.59
2022-12-20T15:03:00.283Z,100598.66
2022-12-20T15:05:53.672Z,100602.13
2022-12-20T15:08:28.115Z,100600.38
2022-12-20T15:11:01.513Z,100599.50
2022-12-20T15:13:34.555Z,100586.41
2022-12-20T15:16:05.421Z,100592.50
2022-12-20T15:18:34.616Z,100608.16
2022-12-20T15:21:07.816Z,100608.16
2022-12-20T15:23:37.480Z,100604.69
2022-12-20T15:26:06.213Z,100598.63
2022-12-20T15:28:36.260Z,100582.94
2022-12-20T15:31:05.714Z,100580.34
2022-12-20T15:33:35.658Z,100593.44
2022-12-20T15:36:04.432Z,100582.09
2022-12-20T15:39:11.148Z,100568.22
2022-12-20T15:41:25.349Z,100581.28
2022-12-20T15:43:58.207Z,100577.81
2022-12-20T15:46:26.854Z,100567.34
2022-12-20T15:48:55.448Z,100567.28
2022-12-20T15:51:31.201Z,100569.91
2022-12-20T15:54:00.729Z,100571.59
2022-12-20T15:56:30.047Z,100569.91
2022-12-20T15:59:00.121Z,100573.38
2022-12-20T16:01:40.413Z,100568.19
2022-12-20T16:04:15.574Z,100572.56
2022-12-20T16:06:44.563Z,100569.09
2022-12-20T16:09:13.454Z,100578.66
2022-12-20T16:11:43.300Z,100571.69
2022-12-20T16:14:17.053Z,100571.75
2022-12-20T16:16:47.699Z,100577.91
2022-12-20T16:19:16.863Z,100575.28
2022-12-20T16:21:48.974Z,100577.06
2022-12-20T16:24:20.352Z,100588.38
2022-12-20T16:26:50.191Z,100591.03
2022-12-20T16:29:19.752Z,100590.22
2022-12-20T16:31:48.330Z,100585.00
2022-12-20T16:34:18.380Z,100585.03
2022-12-20T16:36:47.381Z,100589.44
2022-12-20T16:39:15.933Z,100586.03
2022-12-20T16:41:45.000Z,100577.38
2022-12-20T16:44:16.503Z,100571.31
2022-12-20T16:46:46.479Z,100563.56
2022-12-20T16:49:20.456Z,100568.81
2022-12-20T16:51:50.801Z,100569.75
2022-12-20T16:54:21.739Z,100565.47
2022-12-20T16:56:55.193Z,100559.44
2022-12-20T16:59:24.400Z,100555.16
2022-12-20T17:01:57.742Z,100557.78
2022-12-20T17:04:27.223Z,100560.44
2022-12-20T17:06:55.576Z,100546.53
2022-12-20T17:09:24.483Z,100553.50
2022-12-20T17:11:53.263Z,100550.94
2022-12-20T17:14:21.808Z,100550.03
2022-12-20T17:16:50.470Z,100555.28
2022-12-20T17:19:20.412Z,100553.53
2022-12-20T17:24:35.995Z,100550.06
2022-12-20T17:27:04.767Z,100557.03
2022-12-20T17:29:33.410Z,100546.56
2022-12-20T17:32:03.590Z,100545.66
2022-12-20T17:34:33.240Z,100541.25
2022-12-20T17:37:02.130Z,100537.72
2022-12-20T17:39:30.644Z,100538.56
2022-12-20T17:41:58.981Z,100533.31
2022-12-20T17:44:29.173Z,100534.16
2022-12-20T17:46:58.646Z,100526.34
2022-12-20T17:49:26.994Z,100537.59
2022-12-20T17:51:57.121Z,100542.81
2022-12-20T17:54:32.096Z,100543.69
2022-12-20T17:57:05.219Z,100537.56
2022-12-20T17:59:33.773Z,100539.25
2022-12-20T18:02:02.496Z,100545.28
2022-12-20T18:04:31.258Z,100543.56
2022-12-20T18:07:02.200Z,100546.19
2022-12-20T18:09:30.789Z,100541.06
2022-12-20T18:11:59.348Z,100542.88
2022-12-20T18:14:27.991Z,100534.28
2022-12-20T18:16:56.558Z,100536.97
2022-12-20T18:19:25.211Z,100535.28
2022-12-20T18:21:53.437Z,100530.16
2022-12-20T18:24:23.134Z,100530.25
2022-12-20T18:26:51.671Z,100524.22
2022-12-20T18:29:20.385Z,100524.28
2022-12-20T18:31:48.904Z,100530.41
2022-12-20T18:34:17.418Z,100538.31
2022-12-20T18:36:49.161Z,100534.88
2022-12-20T18:39:17.832Z,100542.72
2022-12-20T18:41:48.210Z,100537.56
2022-12-20T18:44:16.597Z,100529.75
2022-12-20T18:46:45.075Z,100523.66
2022-12-20T18:49:13.658Z,100519.28
2022-12-20T18:51:43.636Z,100507.13
2022-12-20T18:54:14.527Z,100512.34
2022-12-20T18:56:43.160Z,100522.75
2022-12-20T18:59:13.372Z,100520.19
2022-12-20T19:01:42.988Z,100515.00
2022-12-20T19:04:12.243Z,100517.69
2022-12-20T19:06:41.116Z,100519.47
2022-12-20T19:09:12.986Z,100514.28
2022-12-20T19:11:41.970Z,100520.38
2022-12-20T19:14:12.715Z,100523.00
2022-12-20T19:16:41.311Z,100520.41
2022-12-20T19:19:10.377Z,100509.97
2022-12-20T19:21:41.846Z,100517.81
2022-12-20T19:24:12.359Z,100509.94
2022-12-20T19:26:41.745Z,100513.41
2022-12-20T19:29:11.427Z,100518.63
2022-12-20T19:31:41.244Z,100518.59
2022-12-20T19:34:13.332Z,100526.41
2022-12-20T19:36:43.876Z,100517.75
2022-12-20T19:39:16.874Z,100521.19
2022-12-20T19:42:06.818Z,100522.06
2022-12-20T19:44:34.379Z,100516.00
2022-12-20T19:47:07.170Z,100522.94
2022-12-20T19:49:36.735Z,100521.19
2022-12-20T19:52:06.679Z,100519.47
2022-12-20T19:54:36.090Z,100526.41
2022-12-20T19:57:04.362Z,100539.44
2022-12-20T19:59:32.916Z,100533.38
2022-12-20T20:02:03.344Z,100534.22
2022-12-20T20:04:32.881Z,100529.88
2022-12-20T20:07:02.356Z,100540.28
2022-12-20T20:09:30.598Z,100534.25
2022-12-20T20:11:59.335Z,100544.69
2022-12-20T20:14:28.405Z,100540.38
2022-12-20T20:16:57.378Z,100548.19
2022-12-20T20:19:27.371Z,100548.22
2022-12-20T20:21:55.873Z,100554.31
2022-12-20T20:24:24.475Z,100552.63
2022-12-20T20:26:53.044Z,100547.41
2022-12-20T20:29:21.628Z,100550.88
2022-12-20T20:31:50.259Z,100541.31
2022-12-20T20:34:18.828Z,100546.47
2022-12-20T20:36:48.725Z,100547.28
2022-12-20T20:39:17.104Z,100540.25
2022-12-20T20:41:45.700Z,100541.03
2022-12-20T20:44:14.493Z,100536.59
2022-12-20T20:46:43.024Z,100535.63
2022-12-20T20:49:11.752Z,100524.25
2022-12-20T20:51:40.333Z,100526.78
2022-12-20T20:54:10.459Z,100524.97
2022-12-20T20:56:39.015Z,100524.00
2022-12-20T20:59:11.905Z,100517.88
2022-12-20T21:01:45.870Z,100511.75
2022-12-20T21:04:14.322Z,100520.41
2022-12-20T21:06:42.902Z,100515.16
2022-12-20T21:09:12.584Z,100520.34
2022-12-20T21:11:41.484Z,100513.41
2022-12-20T21:14:11.092Z,100523.81
2022-12-20T21:16:42.163Z,100519.41
2022-12-20T21:19:11.294Z,100509.84
2022-12-20T21:21:40.169Z,100510.69
2022-12-20T21:24:08.906Z,100507.19
2022-12-20T21:26:38.879Z,100504.53
2022-12-20T21:29:07.404Z,100497.56
2022-12-20T21:31:37.179Z,100490.59
2022-12-20T21:34:05.814Z,100478.44
2022-12-20T21:36:34.400Z,100481.91
2022-12-20T21:39:03.507Z,100487.97
2022-12-20T21:41:32.168Z,100483.63
2022-12-20T21:44:02.372Z,100481.88
2022-12-20T21:46:32.843Z,100467.06
2022-12-20T21:49:01.667Z,100469.63
2022-12-20T21:51:31.684Z,100486.19
2022-12-20T21:54:02.191Z,100487.03
2022-12-20T21:56:32.880Z,100487.91
2022-12-20T21:59:03.930Z,100486.19
2022-12-20T22:01:33.441Z,100473.19
2022-12-20T22:04:05.453Z,100478.44
2022-12-20T22:06:34.893Z,100474.13
2022-12-20T22:09:07.299Z,100477.66
2022-12-20T22:11:36.554Z,100464.63
2022-12-20T22:14:06.678Z,100479.47
2022-12-20T22:16:35.834Z,100475.16
2022-12-20T22:19:04.821Z,100484.72
2022-12-20T22:21:35.052Z,100474.28
2022-12-20T22:24:04.033Z,100471.72
2022-12-20T22:26:35.754Z,100467.38
2022-12-20T22:29:07.608Z,100471.75
2022-12-20T22:31:37.158Z,100472.59
2022-12-20T22:34:06.087Z,100477.81
2022-12-20T22:36:34.661Z,100471.72
2022-12-20T22:39:03.141Z,100472.56
2022-12-20T22:41:34.602Z,100484.72
2022-12-20T22:44:04.983Z,100469.06
2022-12-20T22:46:33.752Z,100478.56
2022-12-20T22:49:02.322Z,100472.47
2022-12-20T22:51:33.281Z,100468.91
2022-12-20T22:54:02.385Z,100471.50
2022-12-20T22:56:30.894Z,100465.41
2022-12-20T22:58:59.448Z,100462.75
2022-12-20T23:01:29.255Z,100463.59
2022-12-20T23:03:58.006Z,100459.25
2022-12-20T23:06:26.629Z,100455.69
2022-12-20T23:08:55.264Z,100466.94
2022-12-20T23:11:44.579Z,100464.28
2022-12-20T23:14:32.720Z,100462.53
2022-12-20T23:17:03.197Z,100462.47
2022-12-20T23:19:53.083Z,100467.66
2022-12-20T23:22:40.586Z,100466.75
2022-12-20T23:25:11.943Z,100461.47
2022-12-20T23:27:41.587Z,100462.28
2022-12-20T23:30:14.407Z,100458.78
2022-12-20T23:32:45.088Z,100461.31
2022-12-20T23:35:13.994Z,100458.69
2022-12-20T23:37:42.799Z,100448.19
2022-12-20T23:40:12.959Z,100457.72
2022-12-20T23:42:42.195Z,100453.28
2022-12-20T23:45:12.109Z,100457.59
2022-12-20T23:47:40.479Z,100454.97
2022-12-20T23:50:11.354Z,100456.66
2022-12-20T23:52:40.401Z,100451.38
2022-12-20T23:55:09.468Z,100453.94
2022-12-20T23:57:38.128Z,100439.09
